sensor_id;sensor_type;location;lat;lon;timestamp;P1;durP1;ratioP1;P2;durP2;ratioP2
62610;SDS011;48683;48.084;17.272;2024-03-02T00:00:44;43.90;;;16.07;;
62610;SDS011;48683;48.084;17.272;2024-03-02T00:03:11;47.22;;;17.15;;
62610;SDS011;48683;48.084;17.272;2024-03-02T00:05:39;19.33;;;16.10;;
62610;SDS011;48683;48.084;17.272;2024-03-02T00:08:04;42.67;;;16.13;;
62610;SDS011;48683;48.084;17.272;2024-03-02T00:10:37;19.33;;;16.83;;
62610;SDS011;48683;48.084;17.272;2024-03-02T00:13:04;27.92;;;15.50;;
62610;SDS011;48683;48.084;17.272;2024-03-02T00:18:04;65.63;;;18.70;;
62610;SDS011;48683;48.084;17.272;2024-03-02T00:20:29;130.90;;;20.73;;
62610;SDS011;48683;48.084;17.272;2024-03-02T00:23:01;23.50;;;16.40;;
62610;SDS011;48683;48.084;17.272;2024-03-02T00:25:27;84.80;;;19.17;;
62610;SDS011;48683;48.084;17.272;2024-03-02T00:27:52;74.27;;;18.63;;
62610;SDS011;48683;48.084;17.272;2024-03-02T00:30:44;110.97;;;20.30;;
62610;SDS011;48683;48.084;17.272;2024-03-02T00:33:12;182.32;;;22.55;;
62610;SDS011;48683;48.084;17.272;2024-03-02T00:35:37;58.03;;;19.63;;
62610;SDS011;48683;48.084;17.272;2024-03-02T00:38:06;117.40;;;20.42;;
62610;SDS011;48683;48.084;17.272;2024-03-02T00:40:31;26.92;;;19.25;;
62610;SDS011;48683;48.084;17.272;2024-03-02T00:42:56;78.70;;;22.20;;
62610;SDS011;48683;48.084;17.272;2024-03-02T00:45:21;85.32;;;20.83;;
62610;SDS011;48683;48.084;17.272;2024-03-02T00:47:47;219.38;;;22.88;;
62610;SDS011;48683;48.084;17.272;2024-03-02T00:50:12;64.67;;;20.13;;
62610;SDS011;48683;48.084;17.272;2024-03-02T00:52:38;85.95;;;21.00;;
62610;SDS011;48683;48.084;17.272;2024-03-02T00:55:03;82.67;;;21.77;;
62610;SDS011;48683;48.084;17.272;2024-03-02T00:57:30;189.75;;;25.83;;
62610;SDS011;48683;48.084;17.272;2024-03-02T00:59:58;85.97;;;20.98;;
62610;SDS011;48683;48.084;17.272;2024-03-02T01:02:23;123.40;;;22.23;;
62610;SDS011;48683;48.084;17.272;2024-03-02T01:04:49;132.30;;;22.53;;
62610;SDS011;48683;48.084;17.272;2024-03-02T01:07:14;128.73;;;23.43;;
62610;SDS011;48683;48.084;17.272;2024-03-02T03:21:08;73.97;;;35.70;;
62610;SDS011;48683;48.084;17.272;2024-03-02T03:23:33;74.50;;;35.57;;
62610;SDS011;48683;48.084;17.272;2024-03-02T03:25:58;79.83;;;37.57;;
62610;SDS011;48683;48.084;17.272;2024-03-02T03:28:23;68.67;;;36.80;;
62610;SDS011;48683;48.084;17.272;2024-03-02T03:30:48;57.83;;;33.50;;
62610;SDS011;48683;48.084;17.272;2024-03-02T03:33:13;51.90;;;33.40;;
62610;SDS011;48683;48.084;17.272;2024-03-02T03:35:39;52.37;;;31.17;;
62610;SDS011;48683;48.084;17.272;2024-03-02T03:38:04;52.63;;;30.50;;
62610;SDS011;48683;48.084;17.272;2024-03-02T03:40:29;46.40;;;30.53;;
62610;SDS011;48683;48.084;17.272;2024-03-02T03:42:54;47.90;;;28.83;;
62610;SDS011;48683;48.084;17.272;2024-03-02T03:45:21;57.20;;;32.20;;
62610;SDS011;48683;48.084;17.272;2024-03-02T03:47:46;51.40;;;31.03;;
62610;SDS011;48683;48.084;17.272;2024-03-02T03:50:12;49.40;;;29.27;;
62610;SDS011;48683;48.084;17.272;2024-03-02T03:52:37;82.40;;;33.17;;
62610;SDS011;48683;48.084;17.272;2024-03-02T03:55:02;72.50;;;30.85;;
62610;SDS011;48683;48.084;17.272;2024-03-02T03:57:28;97.90;;;32.33;;
62610;SDS011;48683;48.084;17.272;2024-03-02T03:59:53;139.90;;;32.83;;
62610;SDS011;48683;48.084;17.272;2024-03-02T04:02:18;88.00;;;29.10;;
62610;SDS011;48683;48.084;17.272;2024-03-02T04:04:44;137.37;;;30.27;;
62610;SDS011;48683;48.084;17.272;2024-03-02T04:07:09;207.10;;;33.58;;
62610;SDS011;48683;48.084;17.272;2024-03-02T04:09:34;139.87;;;29.97;;
62610;SDS011;48683;48.084;17.272;2024-03-02T04:11:59;222.40;;;32.93;;
62610;SDS011;48683;48.084;17.272;2024-03-02T04:14:24;213.17;;;33.30;;
62610;SDS011;48683;48.084;17.272;2024-03-02T04:16:49;237.80;;;32.00;;
62610;SDS011;48683;48.084;17.272;2024-03-02T04:19:15;120.90;;;29.00;;
62610;SDS011;48683;48.084;17.272;2024-03-02T04:21:40;151.80;;;30.73;;
62610;SDS011;48683;48.084;17.272;2024-03-02T04:24:05;87.90;;;28.50;;
62610;SDS011;48683;48.084;17.272;2024-03-02T04:26:30;137.63;;;29.47;;
62610;SDS011;48683;48.084;17.272;2024-03-02T04:28:55;43.73;;;27.37;;
62610;SDS011;48683;48.084;17.272;2024-03-02T04:31:21;100.93;;;29.37;;
62610;SDS011;48683;48.084;17.272;2024-03-02T04:33:46;36.28;;;26.33;;
62610;SDS011;48683;48.084;17.272;2024-03-02T04:36:11;88.57;;;27.03;;
62610;SDS011;48683;48.084;17.272;2024-03-02T04:38:37;74.03;;;25.13;;
62610;SDS011;48683;48.084;17.272;2024-03-02T04:41:03;158.93;;;25.77;;
62610;SDS011;48683;48.084;17.272;2024-03-02T04:43:28;53.35;;;25.33;;
62610;SDS011;48683;48.084;17.272;2024-03-02T04:45:53;80.90;;;26.87;;
62610;SDS011;48683;48.084;17.272;2024-03-02T04:48:18;147.60;;;30.10;;
62610;SDS011;48683;48.084;17.272;2024-03-02T04:50:44;88.00;;;28.10;;
62610;SDS011;48683;48.084;17.272;2024-03-02T04:53:09;81.23;;;29.10;;
62610;SDS011;48683;48.084;17.272;2024-03-02T04:55:34;57.80;;;30.27;;
62610;SDS011;48683;48.084;17.272;2024-03-02T04:57:59;61.70;;;31.67;;
62610;SDS011;48683;48.084;17.272;2024-03-02T05:00:25;50.90;;;29.63;;
62610;SDS011;48683;48.084;17.272;2024-03-02T05:02:50;56.67;;;31.83;;
62610;SDS011;48683;48.084;17.272;2024-03-02T05:05:16;52.17;;;30.08;;
62610;SDS011;48683;48.084;17.272;2024-03-02T05:07:41;57.03;;;30.33;;
62610;SDS011;48683;48.084;17.272;2024-03-02T05:10:08;67.88;;;31.90;;
62610;SDS011;48683;48.084;17.272;2024-03-02T05:12:34;61.22;;;31.83;;
62610;SDS011;48683;48.084;17.272;2024-03-02T05:15:08;48.97;;;29.90;;
62610;SDS011;48683;48.084;17.272;2024-03-02T05:17:35;50.78;;;30.90;;
62610;SDS011;48683;48.084;17.272;2024-03-02T05:20:00;52.80;;;29.45;;
62610;SDS011;48683;48.084;17.272;2024-03-02T05:22:25;50.53;;;29.17;;
62610;SDS011;48683;48.084;17.272;2024-03-02T05:24:50;77.80;;;32.57;;
62610;SDS011;48683;48.084;17.272;2024-03-02T05:27:15;111.27;;;33.10;;
62610;SDS011;48683;48.084;17.272;2024-03-02T05:29:40;213.57;;;36.23;;
62610;SDS011;48683;48.084;17.272;2024-03-02T05:32:06;180.07;;;37.13;;
62610;SDS011;48683;48.084;17.272;2024-03-02T05:34:31;177.70;;;36.60;;
62610;SDS011;48683;48.084;17.272;2024-03-02T05:36:57;108.82;;;33.65;;
62610;SDS011;48683;48.084;17.272;2024-03-02T05:39:23;96.20;;;35.27;;
62610;SDS011;48683;48.084;17.272;2024-03-02T05:41:49;58.90;;;31.63;;
62610;SDS011;48683;48.084;17.272;2024-03-02T05:44:14;57.63;;;31.23;;
62610;SDS011;48683;48.084;17.272;2024-03-02T05:46:40;85.82;;;33.22;;
62610;SDS011;48683;48.084;17.272;2024-03-02T05:49:05;72.63;;;33.20;;
62610;SDS011;48683;48.084;17.272;2024-03-02T05:51:32;77.68;;;31.85;;
62610;SDS011;48683;48.084;17.272;2024-03-02T05:53:58;84.97;;;35.70;;
62610;SDS011;48683;48.084;17.272;2024-03-02T05:56:23;66.00;;;34.00;;
62610;SDS011;48683;48.084;17.272;2024-03-02T05:58:48;75.13;;;34.43;;
62610;SDS011;48683;48.084;17.272;2024-03-02T06:01:32;50.28;;;31.90;;
62610;SDS011;48683;48.084;17.272;2024-03-02T06:03:58;75.30;;;34.33;;
62610;SDS011;48683;48.084;17.272;2024-03-02T06:06:24;86.22;;;35.58;;
62610;SDS011;48683;48.084;17.272;2024-03-02T06:08:49;56.75;;;31.67;;
62610;SDS011;48683;48.084;17.272;2024-03-02T06:11:14;47.60;;;30.95;;
62610;SDS011;48683;48.084;17.272;2024-03-02T06:13:39;67.63;;;34.17;;
62610;SDS011;48683;48.084;17.272;2024-03-02T06:16:05;73.67;;;33.50;;
62610;SDS011;48683;48.084;17.272;2024-03-02T06:18:30;138.23;;;36.00;;
62610;SDS011;48683;48.084;17.272;2024-03-02T06:20:55;195.43;;;38.87;;
62610;SDS011;48683;48.084;17.272;2024-03-02T06:23:20;173.87;;;38.27;;
62610;SDS011;48683;48.084;17.272;2024-03-02T06:25:46;227.10;;;37.13;;
62610;SDS011;48683;48.084;17.272;2024-03-02T06:28:11;178.27;;;38.93;;
62610;SDS011;48683;48.084;17.272;2024-03-02T06:30:36;289.10;;;42.27;;
62610;SDS011;48683;48.084;17.272;2024-03-02T06:33:01;218.63;;;40.47;;
62610;SDS011;48683;48.084;17.272;2024-03-02T06:37:53;139.65;;;36.45;;
62610;SDS011;48683;48.084;17.272;2024-03-02T06:40:19;204.43;;;44.58;;
62610;SDS011;48683;48.084;17.272;2024-03-02T06:42:44;292.50;;;65.90;;
62610;SDS011;48683;48.084;17.272;2024-03-02T06:45:09;141.43;;;39.27;;
62610;SDS011;48683;48.084;17.272;2024-03-02T06:47:34;134.18;;;34.70;;
62610;SDS011;48683;48.084;17.272;2024-03-02T06:50:00;140.80;;;36.08;;
62610;SDS011;48683;48.084;17.272;2024-03-02T06:52:25;187.27;;;39.20;;
62610;SDS011;48683;48.084;17.272;2024-03-02T06:54:50;74.95;;;32.78;;
62610;SDS011;48683;48.084;17.272;2024-03-02T06:57:15;155.30;;;36.80;;
62610;SDS011;48683;48.084;17.272;2024-03-02T06:59:42;126.40;;;36.70;;
62610;SDS011;48683;48.084;17.272;2024-03-02T07:02:07;103.65;;;41.10;;
62610;SDS011;48683;48.084;17.272;2024-03-02T07:04:33;92.18;;;48.28;;
62610;SDS011;48683;48.084;17.272;2024-03-02T07:06:58;115.63;;;37.47;;
62610;SDS011;48683;48.084;17.272;2024-03-02T07:09:24;110.70;;;36.27;;
62610;SDS011;48683;48.084;17.272;2024-03-02T07:11:49;86.27;;;35.90;;
62610;SDS011;48683;48.084;17.272;2024-03-02T07:14:14;100.53;;;36.38;;
62610;SDS011;48683;48.084;17.272;2024-03-02T07:16:39;109.97;;;37.28;;
62610;SDS011;48683;48.084;17.272;2024-03-02T07:19:05;92.95;;;41.47;;
62610;SDS011;48683;48.084;17.272;2024-03-02T07:21:31;66.43;;;35.42;;
62610;SDS011;48683;48.084;17.272;2024-03-02T07:23:57;56.15;;;35.88;;
62610;SDS011;48683;48.084;17.272;2024-03-02T07:26:22;84.40;;;38.08;;
62610;SDS011;48683;48.084;17.272;2024-03-02T07:28:48;59.28;;;35.08;;
62610;SDS011;48683;48.084;17.272;2024-03-02T07:31:14;78.63;;;38.33;;
62610;SDS011;48683;48.084;17.272;2024-03-02T07:33:39;65.00;;;37.13;;
62610;SDS011;48683;48.084;17.272;2024-03-02T07:36:04;78.60;;;41.13;;
62610;SDS011;48683;48.084;17.272;2024-03-02T07:38:29;68.47;;;39.47;;
62610;SDS011;48683;48.084;17.272;2024-03-02T07:40:55;74.00;;;39.83;;
62610;SDS011;48683;48.084;17.272;2024-03-02T07:43:20;61.90;;;37.30;;
62610;SDS011;48683;48.084;17.272;2024-03-02T07:45:46;80.07;;;39.83;;
62610;SDS011;48683;48.084;17.272;2024-03-02T07:48:11;66.97;;;38.53;;
62610;SDS011;48683;48.084;17.272;2024-03-02T07:50:36;59.33;;;36.28;;
62610;SDS011;48683;48.084;17.272;2024-03-02T08:08:33;55.67;;;36.10;;
62610;SDS011;48683;48.084;17.272;2024-03-02T08:10:58;56.53;;;35.70;;
62610;SDS011;48683;48.084;17.272;2024-03-02T08:13:23;59.43;;;37.47;;
62610;SDS011;48683;48.084;17.272;2024-03-02T08:15:48;56.23;;;37.27;;
62610;SDS011;48683;48.084;17.272;2024-03-02T08:18:14;56.63;;;35.88;;
62610;SDS011;48683;48.084;17.272;2024-03-02T08:20:39;58.27;;;38.13;;
62610;SDS011;48683;48.084;17.272;2024-03-02T08:23:05;59.50;;;38.88;;
62610;SDS011;48683;48.084;17.272;2024-03-02T08:25:30;60.75;;;38.30;;
62610;SDS011;48683;48.084;17.272;2024-03-02T08:27:55;58.73;;;36.80;;
62610;SDS011;48683;48.084;17.272;2024-03-02T08:30:20;55.20;;;36.90;;
62610;SDS011;48683;48.084;17.272;2024-03-02T08:32:46;53.63;;;33.97;;
62610;SDS011;48683;48.084;17.272;2024-03-02T08:35:12;51.65;;;34.88;;
62610;SDS011;48683;48.084;17.272;2024-03-02T08:37:38;53.95;;;34.80;;
62610;SDS011;48683;48.084;17.272;2024-03-02T08:40:04;55.33;;;36.17;;
62610;SDS011;48683;48.084;17.272;2024-03-02T08:42:32;48.00;;;32.45;;
62610;SDS011;48683;48.084;17.272;2024-03-02T08:44:57;51.97;;;35.40;;
62610;SDS011;48683;48.084;17.272;2024-03-02T08:47:22;46.20;;;31.83;;
62610;SDS011;48683;48.084;17.272;2024-03-02T08:49:47;47.05;;;32.60;;
62610;SDS011;48683;48.084;17.272;2024-03-02T08:52:13;49.47;;;31.87;;
62610;SDS011;48683;48.084;17.272;2024-03-02T08:54:38;46.30;;;31.33;;
62610;SDS011;48683;48.084;17.272;2024-03-02T08:57:03;47.55;;;31.63;;
62610;SDS011;48683;48.084;17.272;2024-03-02T08:59:28;47.47;;;31.08;;
62610;SDS011;48683;48.084;17.272;2024-03-02T09:01:54;46.53;;;33.10;;
62610;SDS011;48683;48.084;17.272;2024-03-02T09:04:19;45.65;;;32.65;;
62610;SDS011;48683;48.084;17.272;2024-03-02T09:06:44;45.80;;;30.83;;
62610;SDS011;48683;48.084;17.272;2024-03-02T09:09:09;44.03;;;30.97;;
62610;SDS011;48683;48.084;17.272;2024-03-02T09:11:35;44.70;;;31.10;;
62610;SDS011;48683;48.084;17.272;2024-03-02T09:14:01;47.05;;;32.47;;
62610;SDS011;48683;48.084;17.272;2024-03-02T09:16:26;50.10;;;32.50;;
62610;SDS011;48683;48.084;17.272;2024-03-02T09:18:55;44.70;;;31.67;;
62610;SDS011;48683;48.084;17.272;2024-03-02T09:21:21;46.58;;;30.27;;
62610;SDS011;48683;48.084;17.272;2024-03-02T09:23:46;46.43;;;31.70;;
62610;SDS011;48683;48.084;17.272;2024-03-02T09:26:13;45.42;;;28.65;;
62610;SDS011;48683;48.084;17.272;2024-03-02T09:28:39;46.22;;;31.42;;
62610;SDS011;48683;48.084;17.272;2024-03-02T09:31:07;44.22;;;30.15;;
62610;SDS011;48683;48.084;17.272;2024-03-02T09:33:32;45.70;;;29.47;;
62610;SDS011;48683;48.084;17.272;2024-03-02T09:35:57;40.90;;;26.83;;
62610;SDS011;48683;48.084;17.272;2024-03-02T09:38:23;42.28;;;29.05;;
62610;SDS011;48683;48.084;17.272;2024-03-02T09:40:48;39.53;;;27.23;;
62610;SDS011;48683;48.084;17.272;2024-03-02T09:43:13;39.78;;;29.15;;
62610;SDS011;48683;48.084;17.272;2024-03-02T09:45:39;40.85;;;27.55;;
62610;SDS011;48683;48.084;17.272;2024-03-02T09:48:04;40.15;;;28.10;;
62610;SDS011;48683;48.084;17.272;2024-03-02T09:50:29;41.50;;;30.30;;
62610;SDS011;48683;48.084;17.272;2024-03-02T09:52:54;42.17;;;29.77;;
62610;SDS011;48683;48.084;17.272;2024-03-02T09:55:20;42.87;;;28.97;;
62610;SDS011;48683;48.084;17.272;2024-03-02T09:57:46;39.67;;;29.27;;
62610;SDS011;48683;48.084;17.272;2024-03-02T10:00:11;43.58;;;27.83;;
62610;SDS011;48683;48.084;17.272;2024-03-02T10:02:39;38.65;;;27.60;;
62610;SDS011;48683;48.084;17.272;2024-03-02T10:05:06;40.45;;;29.45;;
62610;SDS011;48683;48.084;17.272;2024-03-02T10:07:31;39.60;;;27.65;;
62610;SDS011;48683;48.084;17.272;2024-03-02T10:09:56;42.07;;;27.50;;
62610;SDS011;48683;48.084;17.272;2024-03-02T10:12:21;41.97;;;27.13;;
62610;SDS011;48683;48.084;17.272;2024-03-02T10:14:47;37.55;;;26.55;;
62610;SDS011;48683;48.084;17.272;2024-03-02T10:17:13;39.97;;;27.13;;
62610;SDS011;48683;48.084;17.272;2024-03-02T10:19:40;39.83;;;25.73;;
62610;SDS011;48683;48.084;17.272;2024-03-02T10:22:06;40.40;;;27.07;;
62610;SDS011;48683;48.084;17.272;2024-03-02T10:24:41;37.05;;;25.70;;
62610;SDS011;48683;48.084;17.272;2024-03-02T10:27:10;38.05;;;25.98;;
62610;SDS011;48683;48.084;17.272;2024-03-02T10:29:39;35.63;;;25.23;;
62610;SDS011;48683;48.084;17.272;2024-03-02T10:32:05;43.00;;;26.42;;
62610;SDS011;48683;48.084;17.272;2024-03-02T10:34:31;38.95;;;26.73;;
62610;SDS011;48683;48.084;17.272;2024-03-02T10:36:56;40.40;;;26.42;;
62610;SDS011;48683;48.084;17.272;2024-03-02T10:39:22;40.30;;;26.67;;
62610;SDS011;48683;48.084;17.272;2024-03-02T10:44:14;43.17;;;27.17;;
62610;SDS011;48683;48.084;17.272;2024-03-02T10:46:39;38.28;;;26.35;;
62610;SDS011;48683;48.084;17.272;2024-03-02T10:49:05;44.83;;;29.10;;
62610;SDS011;48683;48.084;17.272;2024-03-02T10:51:33;39.67;;;27.73;;
62610;SDS011;48683;48.084;17.272;2024-03-02T10:54:01;44.40;;;30.23;;
62610;SDS011;48683;48.084;17.272;2024-03-02T10:57:00;44.03;;;29.38;;
62610;SDS011;48683;48.084;17.272;2024-03-02T10:59:26;45.35;;;30.42;;
62610;SDS011;48683;48.084;17.272;2024-03-02T11:01:53;44.58;;;31.40;;
62610;SDS011;48683;48.084;17.272;2024-03-02T11:04:20;47.05;;;32.83;;
62610;SDS011;48683;48.084;17.272;2024-03-02T11:06:49;50.63;;;34.75;;
62610;SDS011;48683;48.084;17.272;2024-03-02T11:09:15;49.58;;;33.90;;
62610;SDS011;48683;48.084;17.272;2024-03-02T11:11:42;48.67;;;33.95;;
62610;SDS011;48683;48.084;17.272;2024-03-02T11:14:10;48.42;;;33.95;;
62610;SDS011;48683;48.084;17.272;2024-03-02T11:16:38;52.75;;;34.53;;
62610;SDS011;48683;48.084;17.272;2024-03-02T11:19:08;51.08;;;33.85;;
62610;SDS011;48683;48.084;17.272;2024-03-02T11:21:34;49.88;;;33.92;;
62610;SDS011;48683;48.084;17.272;2024-03-02T11:24:00;54.42;;;36.55;;
62610;SDS011;48683;48.084;17.272;2024-03-02T11:28:53;52.55;;;34.80;;
62610;SDS011;48683;48.084;17.272;2024-03-02T11:31:18;48.83;;;33.53;;
62610;SDS011;48683;48.084;17.272;2024-03-02T11:33:44;49.17;;;34.50;;
62610;SDS011;48683;48.084;17.272;2024-03-02T11:36:09;53.67;;;35.97;;
62610;SDS011;48683;48.084;17.272;2024-03-02T11:38:35;56.70;;;36.80;;
62610;SDS011;48683;48.084;17.272;2024-03-02T11:41:01;59.03;;;38.05;;
62610;SDS011;48683;48.084;17.272;2024-03-02T11:43:30;56.33;;;37.60;;
62610;SDS011;48683;48.084;17.272;2024-03-02T11:45:59;55.60;;;37.60;;
62610;SDS011;48683;48.084;17.272;2024-03-02T11:48:24;60.45;;;39.25;;
62610;SDS011;48683;48.084;17.272;2024-03-02T11:50:50;58.97;;;38.63;;
62610;SDS011;48683;48.084;17.272;2024-03-02T11:53:15;57.08;;;38.22;;
62610;SDS011;48683;48.084;17.272;2024-03-02T11:55:42;60.33;;;38.75;;
62610;SDS011;48683;48.084;17.272;2024-03-02T11:58:14;60.17;;;37.88;;
62610;SDS011;48683;48.084;17.272;2024-03-02T12:00:39;61.92;;;39.33;;
62610;SDS011;48683;48.084;17.272;2024-03-02T12:03:05;55.33;;;37.97;;
62610;SDS011;48683;48.084;17.272;2024-03-02T12:05:31;54.03;;;37.17;;
62610;SDS011;48683;48.084;17.272;2024-03-02T12:07:57;53.30;;;37.42;;
62610;SDS011;48683;48.084;17.272;2024-03-02T12:10:22;53.55;;;36.40;;
62610;SDS011;48683;48.084;17.272;2024-03-02T12:12:48;50.60;;;36.00;;
62610;SDS011;48683;48.084;17.272;2024-03-02T12:15:22;53.80;;;37.10;;
62610;SDS011;48683;48.084;17.272;2024-03-02T12:17:47;53.95;;;35.45;;
62610;SDS011;48683;48.084;17.272;2024-03-02T12:20:12;50.00;;;35.37;;
62610;SDS011;48683;48.084;17.272;2024-03-02T12:22:38;51.13;;;35.30;;
62610;SDS011;48683;48.084;17.272;2024-03-02T12:25:03;50.33;;;34.20;;
62610;SDS011;48683;48.084;17.272;2024-03-02T12:27:28;53.85;;;36.25;;
62610;SDS011;48683;48.084;17.272;2024-03-02T12:29:53;86.27;;;49.43;;
62610;SDS011;48683;48.084;17.272;2024-03-02T12:32:19;53.20;;;35.77;;
62610;SDS011;48683;48.084;17.272;2024-03-02T12:34:46;44.92;;;31.88;;
62610;SDS011;48683;48.084;17.272;2024-03-02T12:37:12;47.25;;;33.53;;
62610;SDS011;48683;48.084;17.272;2024-03-02T12:39:37;49.17;;;34.17;;
62610;SDS011;48683;48.084;17.272;2024-03-02T12:42:02;47.40;;;31.93;;
62610;SDS011;48683;48.084;17.272;2024-03-02T12:44:27;50.78;;;33.45;;
62610;SDS011;48683;48.084;17.272;2024-03-02T12:46:53;47.00;;;32.25;;
62610;SDS011;48683;48.084;17.272;2024-03-02T12:49:21;46.20;;;31.60;;
62610;SDS011;48683;48.084;17.272;2024-03-02T12:51:46;48.85;;;32.80;;
62610;SDS011;48683;48.084;17.272;2024-03-02T12:54:18;47.13;;;31.80;;
62610;SDS011;48683;48.084;17.272;2024-03-02T12:56:47;44.78;;;29.38;;
62610;SDS011;48683;48.084;17.272;2024-03-02T12:59:18;41.83;;;29.90;;
62610;SDS011;48683;48.084;17.272;2024-03-02T13:01:51;41.63;;;28.23;;
62610;SDS011;48683;48.084;17.272;2024-03-02T13:04:16;41.63;;;27.20;;
62610;SDS011;48683;48.084;17.272;2024-03-02T13:06:41;60.47;;;29.17;;
62610;SDS011;48683;48.084;17.272;2024-03-02T13:09:06;41.20;;;26.73;;
62610;SDS011;48683;48.084;17.272;2024-03-02T13:11:39;43.35;;;28.98;;
62610;SDS011;48683;48.084;17.272;2024-03-02T13:14:04;39.13;;;28.00;;
62610;SDS011;48683;48.084;17.272;2024-03-02T13:16:30;36.85;;;25.77;;
62610;SDS011;48683;48.084;17.272;2024-03-02T13:18:55;36.67;;;25.77;;
62610;SDS011;48683;48.084;17.272;2024-03-02T13:21:20;34.83;;;24.83;;
62610;SDS011;48683;48.084;17.272;2024-03-02T13:23:45;33.80;;;24.67;;
62610;SDS011;48683;48.084;17.272;2024-03-02T13:26:11;35.20;;;25.63;;
62610;SDS011;48683;48.084;17.272;2024-03-02T13:28:37;30.50;;;22.50;;
62610;SDS011;48683;48.084;17.272;2024-03-02T13:31:03;30.60;;;23.48;;
62610;SDS011;48683;48.084;17.272;2024-03-02T13:33:28;33.72;;;23.02;;
62610;SDS011;48683;48.084;17.272;2024-03-02T13:35:55;28.60;;;20.98;;
62610;SDS011;48683;48.084;17.272;2024-03-02T13:38:20;25.27;;;20.43;;
62610;SDS011;48683;48.084;17.272;2024-03-02T13:40:45;27.03;;;19.93;;
62610;SDS011;48683;48.084;17.272;2024-03-02T13:43:11;23.65;;;18.50;;
62610;SDS011;48683;48.084;17.272;2024-03-02T13:45:37;23.58;;;18.25;;
62610;SDS011;48683;48.084;17.272;2024-03-02T13:48:02;27.02;;;18.90;;
62610;SDS011;48683;48.084;17.272;2024-03-02T13:50:28;24.27;;;19.35;;
62610;SDS011;48683;48.084;17.272;2024-03-02T13:52:55;24.85;;;19.75;;
62610;SDS011;48683;48.084;17.272;2024-03-02T13:55:20;25.17;;;19.53;;
62610;SDS011;48683;48.084;17.272;2024-03-02T13:57:45;25.47;;;18.83;;
62610;SDS011;48683;48.084;17.272;2024-03-02T14:00:11;27.58;;;19.23;;
62610;SDS011;48683;48.084;17.272;2024-03-02T14:02:37;23.93;;;17.57;;
62610;SDS011;48683;48.084;17.272;2024-03-02T14:05:02;22.30;;;17.58;;
62610;SDS011;48683;48.084;17.272;2024-03-02T14:07:28;22.05;;;17.40;;
62610;SDS011;48683;48.084;17.272;2024-03-02T14:09:53;23.23;;;18.57;;
62610;SDS011;48683;48.084;17.272;2024-03-02T14:12:18;22.93;;;18.50;;
62610;SDS011;48683;48.084;17.272;2024-03-02T14:14:43;25.63;;;18.90;;
62610;SDS011;48683;48.084;17.272;2024-03-02T14:17:08;22.67;;;18.47;;
62610;SDS011;48683;48.084;17.272;2024-03-02T14:19:39;25.90;;;19.77;;
62610;SDS011;48683;48.084;17.272;2024-03-02T14:22:04;23.47;;;18.97;;
62610;SDS011;48683;48.084;17.272;2024-03-02T14:24:30;23.17;;;18.65;;
62610;SDS011;48683;48.084;17.272;2024-03-02T14:26:55;25.67;;;19.52;;
62610;SDS011;48683;48.084;17.272;2024-03-02T14:29:22;23.50;;;19.15;;
62610;SDS011;48683;48.084;17.272;2024-03-02T14:31:47;25.37;;;19.70;;
62610;SDS011;48683;48.084;17.272;2024-03-02T14:34:13;25.83;;;20.25;;
62610;SDS011;48683;48.084;17.272;2024-03-02T14:36:38;24.30;;;18.60;;
62610;SDS011;48683;48.084;17.272;2024-03-02T14:39:04;24.55;;;19.73;;
62610;SDS011;48683;48.084;17.272;2024-03-02T14:41:34;24.63;;;18.15;;
62610;SDS011;48683;48.084;17.272;2024-03-02T14:43:59;25.90;;;19.10;;
62610;SDS011;48683;48.084;17.272;2024-03-02T14:46:24;25.70;;;19.53;;
62610;SDS011;48683;48.084;17.272;2024-03-02T14:48:49;24.33;;;19.13;;
62610;SDS011;48683;48.084;17.272;2024-03-02T14:51:15;29.52;;;20.35;;
62610;SDS011;48683;48.084;17.272;2024-03-02T14:53:40;26.77;;;20.35;;
62610;SDS011;48683;48.084;17.272;2024-03-02T14:56:05;29.65;;;21.88;;
62610;SDS011;48683;48.084;17.272;2024-03-02T14:58:31;27.00;;;21.20;;
62610;SDS011;48683;48.084;17.272;2024-03-02T15:00:56;30.50;;;22.23;;
62610;SDS011;48683;48.084;17.272;2024-03-02T15:03:21;49.57;;;28.07;;
62610;SDS011;48683;48.084;17.272;2024-03-02T15:05:46;78.47;;;32.08;;
62610;SDS011;48683;48.084;17.272;2024-03-02T15:08:12;83.97;;;36.45;;
62610;SDS011;48683;48.084;17.272;2024-03-02T15:10:38;43.95;;;26.50;;
62610;SDS011;48683;48.084;17.272;2024-03-02T15:13:03;54.83;;;31.88;;
62610;SDS011;48683;48.084;17.272;2024-03-02T15:15:28;40.90;;;27.57;;
62610;SDS011;48683;48.084;17.272;2024-03-02T15:17:54;32.27;;;24.33;;
62610;SDS011;48683;48.084;17.272;2024-03-02T15:20:19;30.60;;;22.90;;
62610;SDS011;48683;48.084;17.272;2024-03-02T15:22:46;34.53;;;24.85;;
62610;SDS011;48683;48.084;17.272;2024-03-02T15:25:11;26.37;;;20.00;;
62610;SDS011;48683;48.084;17.272;2024-03-02T15:27:37;37.40;;;26.33;;
62610;SDS011;48683;48.084;17.272;2024-03-02T15:30:03;43.87;;;30.10;;
62610;SDS011;48683;48.084;17.272;2024-03-02T15:32:28;39.50;;;26.83;;
62610;SDS011;48683;48.084;17.272;2024-03-02T15:34:53;33.33;;;23.70;;
62610;SDS011;48683;48.084;17.272;2024-03-02T15:37:19;27.77;;;21.17;;
62610;SDS011;48683;48.084;17.272;2024-03-02T15:39:44;27.73;;;20.30;;
62610;SDS011;48683;48.084;17.272;2024-03-02T15:42:09;24.77;;;19.83;;
62610;SDS011;48683;48.084;17.272;2024-03-02T15:44:34;25.73;;;19.63;;
62610;SDS011;48683;48.084;17.272;2024-03-02T15:46:59;25.93;;;19.90;;
62610;SDS011;48683;48.084;17.272;2024-03-02T15:49:25;25.53;;;19.47;;
62610;SDS011;48683;48.084;17.272;2024-03-02T15:51:50;28.63;;;22.33;;
62610;SDS011;48683;48.084;17.272;2024-03-02T15:54:15;28.97;;;21.27;;
62610;SDS011;48683;48.084;17.272;2024-03-02T15:56:40;25.60;;;19.13;;
62610;SDS011;48683;48.084;17.272;2024-03-02T15:59:06;35.80;;;26.75;;
62610;SDS011;48683;48.084;17.272;2024-03-02T16:01:31;29.70;;;23.30;;
62610;SDS011;48683;48.084;17.272;2024-03-02T16:03:57;28.15;;;21.13;;
62610;SDS011;48683;48.084;17.272;2024-03-02T16:06:22;30.80;;;22.95;;
62610;SDS011;48683;48.084;17.272;2024-03-02T16:08:47;25.95;;;21.13;;
62610;SDS011;48683;48.084;17.272;2024-03-02T16:11:12;27.30;;;20.40;;
62610;SDS011;48683;48.084;17.272;2024-03-02T16:13:38;24.70;;;20.13;;
62610;SDS011;48683;48.084;17.272;2024-03-02T16:16:03;25.70;;;20.27;;
62610;SDS011;48683;48.084;17.272;2024-03-02T16:18:29;25.95;;;19.55;;
62610;SDS011;48683;48.084;17.272;2024-03-02T16:20:54;26.07;;;20.50;;
62610;SDS011;48683;48.084;17.272;2024-03-02T16:23:19;27.98;;;19.50;;
62610;SDS011;48683;48.084;17.272;2024-03-02T16:25:44;25.63;;;19.25;;
62610;SDS011;48683;48.084;17.272;2024-03-02T16:28:09;25.90;;;20.33;;
62610;SDS011;48683;48.084;17.272;2024-03-02T16:30:35;27.92;;;21.17;;
62610;SDS011;48683;48.084;17.272;2024-03-02T16:33:01;27.08;;;21.27;;
62610;SDS011;48683;48.084;17.272;2024-03-02T16:35:26;26.95;;;20.17;;